createdAt,value
2018-06-13T00:01:44.601Z,1.60
2018-06-13T00:04:13.281Z,1.30
2018-06-13T00:06:41.864Z,1.40
2018-06-13T00:09:10.365Z,1.43
2018-06-13T00:11:39.026Z,2.07
2018-06-13T00:14:07.712Z,1.40
2018-06-13T00:16:36.242Z,1.50
2018-06-13T00:19:04.814Z,1.80
2018-06-13T00:21:33.459Z,4.63
2018-06-13T00:24:02.044Z,1.50
2018-06-13T00:26:30.639Z,1.47
2018-06-13T00:29:00.027Z,2.23
2018-06-13T00:31:28.609Z,1.60
2018-06-13T00:33:57.397Z,2.40
2018-06-13T00:36:26.447Z,1.63
2018-06-13T00:38:55.790Z,2.03
2018-06-13T00:41:24.423Z,2.13
2018-06-13T00:43:53.618Z,1.90
2018-06-13T00:46:22.299Z,1.40
2018-06-13T00:48:50.944Z,2.17
2018-06-13T00:51:19.628Z,2.00
2018-06-13T00:53:48.209Z,2.37
2018-06-13T00:56:29.272Z,2.57
2018-06-13T00:58:57.869Z,1.97
2018-06-13T01:01:26.555Z,1.97
2018-06-13T01:03:55.136Z,1.47
2018-06-13T01:06:23.638Z,1.60
2018-06-13T01:08:52.286Z,1.77
2018-06-13T01:11:20.834Z,1.70
2018-06-13T01:13:50.066Z,2.37
2018-06-13T01:16:18.562Z,1.77
2018-06-13T01:18:47.197Z,1.77
2018-06-13T01:21:15.749Z,4.20
2018-06-13T01:23:44.326Z,1.80
2018-06-13T01:26:13.687Z,2.10
2018-06-13T01:28:42.858Z,2.33
2018-06-13T01:31:11.496Z,2.27
2018-06-13T01:33:40.592Z,2.13
2018-06-13T01:36:09.120Z,2.20
2018-06-13T01:38:37.715Z,2.13
2018-06-13T01:41:06.358Z,1.77
2018-06-13T01:43:35.023Z,2.47
2018-06-13T01:46:03.625Z,2.73
2018-06-13T01:48:32.290Z,3.37
2018-06-13T01:51:00.822Z,2.63
2018-06-13T01:53:30.286Z,2.07
2018-06-13T01:55:58.960Z,3.40
2018-06-13T01:58:27.606Z,2.17
2018-06-13T02:00:56.146Z,4.40
2018-06-13T02:03:24.660Z,2.70
2018-06-13T02:05:53.296Z,2.43
2018-06-13T02:08:22.408Z,2.10
2018-06-13T02:10:51.073Z,3.33
2018-06-13T02:13:19.758Z,2.17
2018-06-13T02:15:48.355Z,1.63
2018-06-13T02:18:17.025Z,2.33
2018-06-13T02:20:45.711Z,2.53
2018-06-13T02:23:14.296Z,2.43
2018-06-13T02:25:42.858Z,3.87
2018-06-13T02:28:11.378Z,1.87
2018-06-13T02:30:40.043Z,2.20
2018-06-13T02:33:08.582Z,2.33
2018-06-13T02:35:37.165Z,1.97
2018-06-13T02:38:05.781Z,2.50
2018-06-13T02:40:34.286Z,2.70
2018-06-13T02:43:02.878Z,2.77
2018-06-13T02:45:31.383Z,4.13
2018-06-13T02:48:00.122Z,4.33
2018-06-13T02:50:28.686Z,2.97
2018-06-13T02:52:57.234Z,3.03
2018-06-13T02:55:25.746Z,2.30
2018-06-13T02:57:54.353Z,2.37
2018-06-13T03:00:23.038Z,3.63
2018-06-13T03:02:51.727Z,3.87
2018-06-13T03:05:20.322Z,1.97
2018-06-13T03:07:48.846Z,2.80
2018-06-13T03:10:17.470Z,3.63
2018-06-13T03:12:46.155Z,1.83
2018-06-13T03:15:14.841Z,1.67
2018-06-13T03:17:43.526Z,1.80
2018-06-13T03:20:12.212Z,3.50
2018-06-13T03:22:40.823Z,3.07
2018-06-13T03:25:09.480Z,5.07
2018-06-13T03:27:38.051Z,2.37
2018-06-13T03:30:06.874Z,3.63
2018-06-13T03:32:35.537Z,2.20
2018-06-13T03:35:04.112Z,2.63
2018-06-13T03:37:32.704Z,3.47
2018-06-13T03:40:02.043Z,2.50
2018-06-13T03:42:30.570Z,3.20
2018-06-13T03:44:59.175Z,2.30
2018-06-13T03:47:27.852Z,3.23
2018-06-13T03:49:56.435Z,3.50
2018-06-13T03:52:25.113Z,3.33
2018-06-13T03:54:53.892Z,2.63
2018-06-13T03:57:22.481Z,2.40
2018-06-13T03:59:51.994Z,4.03
2018-06-13T04:02:20.577Z,4.00
2018-06-13T04:04:49.263Z,2.90
2018-06-13T04:07:18.011Z,2.97
2018-06-13T04:09:46.627Z,4.67
2018-06-13T04:12:15.254Z,2.97
2018-06-13T04:14:43.914Z,3.20
2018-06-13T04:17:12.484Z,8.37
2018-06-13T04:19:41.684Z,5.50
2018-06-13T04:22:10.286Z,8.13
2018-06-13T04:24:39.019Z,15.57
2018-06-13T04:27:07.738Z,6.83
2018-06-13T04:29:36.422Z,6.97
2018-06-13T04:32:04.995Z,8.10
2018-06-13T04:34:34.305Z,4.40
2018-06-13T04:37:02.938Z,5.03
2018-06-13T04:39:31.473Z,9.87
2018-06-13T04:42:00.125Z,6.17
2018-06-13T04:44:28.740Z,7.23
2018-06-13T04:46:57.427Z,6.63
2018-06-13T04:49:26.072Z,10.73
2018-06-13T04:51:54.695Z,5.80
2018-06-13T04:54:23.993Z,5.60
2018-06-13T04:56:52.510Z,4.43
2018-06-13T04:59:21.261Z,9.80
2018-06-13T05:01:49.929Z,9.70
2018-06-13T05:04:18.478Z,10.07
2018-06-13T05:06:47.111Z,9.50
2018-06-13T05:09:15.797Z,7.00
2018-06-13T05:11:44.379Z,8.10
2018-06-13T05:14:12.907Z,7.67
2018-06-13T05:16:41.545Z,8.07
2018-06-13T05:19:10.038Z,7.93
2018-06-13T05:21:38.710Z,10.57
2018-06-13T05:24:07.280Z,10.33
2018-06-13T05:26:35.877Z,10.97
2018-06-13T05:29:04.706Z,8.13
2018-06-13T05:31:33.454Z,9.67
2018-06-13T05:34:01.967Z,6.17
2018-06-13T05:36:30.570Z,8.23
2018-06-13T05:38:59.307Z,15.17
2018-06-13T05:41:27.887Z,11.40
2018-06-13T05:43:56.535Z,8.27
2018-06-13T05:46:25.058Z,6.53
2018-06-13T05:48:53.558Z,8.97
2018-06-13T05:51:22.219Z,8.83
2018-06-13T05:53:51.537Z,7.83
2018-06-13T05:56:20.263Z,6.70
2018-06-13T05:58:48.897Z,5.00
2018-06-13T06:01:17.545Z,12.27
2018-06-13T06:03:46.155Z,8.97
2018-06-13T06:06:14.840Z,9.70
2018-06-13T06:08:43.470Z,8.57
2018-06-13T06:11:12.928Z,10.53
2018-06-13T06:13:41.526Z,11.17
2018-06-13T06:16:10.142Z,11.77
2018-06-13T06:18:38.728Z,10.67
2018-06-13T06:21:07.614Z,6.67
2018-06-13T06:23:36.261Z,18.23
2018-06-13T06:26:04.993Z,9.27
2018-06-13T06:28:33.621Z,12.63
2018-06-13T06:31:02.308Z,13.40
2018-06-13T06:33:30.954Z,11.30
2018-06-13T06:35:59.576Z,10.43
2018-06-13T06:38:28.157Z,10.53
2018-06-13T06:40:56.690Z,10.20
2018-06-13T06:43:25.326Z,14.37
2018-06-13T06:45:53.828Z,7.70
2018-06-13T06:48:22.379Z,10.23
2018-06-13T06:50:51.034Z,7.10
2018-06-13T06:53:19.543Z,7.43
2018-06-13T06:55:48.226Z,8.47
2018-06-13T06:58:16.763Z,10.20
2018-06-13T07:00:45.404Z,8.77
2018-06-13T07:03:13.988Z,6.63
2018-06-13T07:05:42.528Z,5.37
2018-06-13T07:08:11.256Z,11.90
2018-06-13T07:10:39.941Z,8.17
2018-06-13T07:13:08.511Z,12.00
2018-06-13T07:15:37.040Z,13.87
2018-06-13T07:18:06.420Z,10.63
2018-06-13T07:20:35.001Z,9.97
2018-06-13T07:23:03.501Z,10.63
2018-06-13T07:25:32.059Z,9.70
2018-06-13T07:28:00.591Z,11.90
2018-06-13T07:30:29.321Z,10.63
2018-06-13T07:32:57.903Z,15.20
2018-06-13T07:35:26.410Z,10.30
2018-06-13T07:37:55.893Z,4.50
2018-06-13T07:40:24.474Z,12.50
2018-06-13T07:42:53.116Z,8.77
2018-06-13T07:45:21.739Z,14.33
2018-06-13T07:47:50.321Z,11.13
2018-06-13T07:50:18.905Z,12.97
2018-06-13T07:52:47.534Z,13.63
2018-06-13T07:55:16.058Z,12.53
2018-06-13T07:57:44.566Z,10.30
2018-06-13T08:00:13.237Z,11.03
2018-06-13T08:02:41.813Z,14.30
2018-06-13T08:05:10.322Z,10.90
2018-06-13T08:07:38.898Z,7.87
2018-06-13T08:10:07.474Z,10.63
2018-06-13T08:12:36.096Z,11.73
2018-06-13T08:15:05.028Z,15.50
2018-06-13T08:17:33.662Z,12.83
2018-06-13T08:20:02.210Z,10.80
2018-06-13T08:22:30.795Z,12.37
2018-06-13T08:24:59.371Z,14.80
2018-06-13T08:27:27.954Z,8.10
2018-06-13T08:29:56.564Z,12.40
2018-06-13T08:32:25.266Z,9.17
2018-06-13T08:34:53.926Z,12.53
2018-06-13T08:37:22.531Z,9.57
2018-06-13T08:39:51.140Z,11.25
2018-06-13T08:42:19.759Z,12.73
2018-06-13T08:44:48.386Z,11.90
2018-06-13T08:47:17.045Z,6.75
2018-06-13T08:49:45.550Z,7.22
2018-06-13T08:52:14.193Z,8.18
2018-06-13T08:54:42.690Z,7.47
2018-06-13T08:57:11.872Z,10.43
2018-06-13T08:59:40.455Z,8.50
2018-06-13T09:02:08.958Z,8.20
2018-06-13T09:04:37.519Z,12.53
2018-06-13T09:07:06.202Z,11.30
2018-06-13T09:09:34.887Z,8.38
2018-06-13T09:12:03.594Z,8.58
2018-06-13T09:14:32.261Z,12.07
2018-06-13T09:17:00.842Z,10.03
2018-06-13T09:19:29.423Z,12.80
2018-06-13T09:21:57.906Z,11.80
2018-06-13T09:24:26.494Z,6.95
2018-06-13T09:26:54.970Z,15.75
2018-06-13T09:29:23.635Z,8.10
2018-06-13T09:31:52.339Z,13.45
2018-06-13T09:34:20.866Z,7.25
2018-06-13T09:36:49.504Z,11.00
2018-06-13T09:39:18.193Z,8.58
2018-06-13T09:41:51.996Z,10.60
2018-06-13T09:44:20.682Z,6.45
2018-06-13T09:46:49.263Z,7.20
2018-06-13T09:49:17.779Z,4.92
2018-06-13T09:51:46.429Z,8.53
2018-06-13T09:54:15.081Z,6.60
2018-06-13T09:56:43.743Z,6.00
2018-06-13T09:59:13.642Z,8.00
2018-06-13T10:01:47.473Z,7.08
2018-06-13T10:04:16.014Z,5.25
2018-06-13T10:06:44.629Z,7.65
2018-06-13T10:09:13.676Z,7.33
2018-06-13T10:11:42.362Z,7.08
2018-06-13T10:14:10.899Z,5.83
2018-06-13T10:16:39.441Z,3.70
2018-06-13T10:19:08.667Z,7.37
2018-06-13T10:21:37.850Z,3.83
2018-06-13T10:24:06.505Z,8.15
2018-06-13T10:26:35.533Z,9.75
2018-06-13T10:29:04.713Z,8.73
2018-06-13T10:31:33.379Z,10.00
2018-06-13T10:34:01.915Z,8.95
2018-06-13T10:36:30.566Z,8.58
2018-06-13T10:38:59.779Z,5.92
2018-06-13T10:41:28.428Z,5.03
2018-06-13T10:43:57.625Z,7.72
2018-06-13T10:46:26.118Z,8.68
2018-06-13T10:48:54.610Z,10.13
2018-06-13T10:51:23.111Z,5.00
2018-06-13T10:53:51.659Z,12.35
2018-06-13T10:56:21.047Z,8.30
2018-06-13T10:58:50.148Z,4.97
2018-06-13T11:01:18.791Z,6.20
2018-06-13T11:03:47.417Z,11.45
2018-06-13T11:06:15.997Z,5.30
2018-06-13T11:08:45.299Z,6.17
2018-06-13T11:11:13.879Z,7.37
2018-06-13T11:13:42.926Z,5.58
2018-06-13T11:16:12.199Z,2.90
2018-06-13T11:18:40.798Z,7.70
2018-06-13T11:21:09.440Z,6.12
2018-06-13T11:23:38.125Z,6.45
2018-06-13T11:26:06.826Z,6.17
2018-06-13T11:28:35.456Z,7.65
2018-06-13T11:31:04.078Z,7.87
2018-06-13T11:33:32.610Z,8.45
2018-06-13T11:36:01.244Z,7.17
2018-06-13T11:38:29.870Z,9.08
2018-06-13T11:40:58.394Z,10.18
2018-06-13T11:43:27.604Z,7.72
2018-06-13T11:45:56.402Z,6.50
2018-06-13T11:48:24.914Z,4.30
2018-06-13T11:50:53.506Z,7.75
2018-06-13T11:53:22.146Z,5.28
2018-06-13T11:55:50.642Z,5.77
2018-06-13T11:58:19.254Z,9.78
2018-06-13T12:00:47.886Z,10.30
2018-06-13T12:03:16.475Z,9.13
2018-06-13T12:05:45.104Z,8.78
2018-06-13T12:08:13.810Z,5.62
2018-06-13T12:10:42.411Z,4.55
2018-06-13T12:13:10.940Z,5.65
2018-06-13T12:15:39.966Z,5.12
2018-06-13T12:18:09.360Z,4.00
2018-06-13T12:20:37.955Z,7.40
2018-06-13T12:23:06.572Z,6.25
2018-06-13T12:25:35.099Z,3.90
2018-06-13T12:28:03.632Z,4.50
2018-06-13T12:30:32.466Z,8.23
2018-06-13T12:33:01.827Z,6.22
2018-06-13T12:35:30.521Z,7.10
2018-06-13T12:37:59.170Z,4.95
2018-06-13T12:40:27.739Z,8.70
2018-06-13T12:42:56.361Z,5.97
2018-06-13T12:45:24.969Z,5.90
2018-06-13T12:47:53.564Z,6.75
2018-06-13T12:50:22.110Z,5.50
2018-06-13T12:52:50.693Z,6.30
2018-06-13T12:55:19.275Z,6.78
2018-06-13T12:57:47.859Z,5.37
2018-06-13T13:00:16.347Z,7.95
2018-06-13T13:02:44.878Z,7.13
2018-06-13T13:05:13.481Z,6.30
2018-06-13T13:07:43.421Z,7.47
2018-06-13T13:10:12.023Z,5.65
2018-06-13T13:12:40.835Z,6.40
2018-06-13T13:15:09.856Z,7.60
2018-06-13T13:17:38.378Z,5.05
2018-06-13T13:20:07.831Z,8.58
2018-06-13T13:22:36.358Z,5.60
2018-06-13T13:25:05.006Z,6.67
2018-06-13T13:27:33.678Z,8.53
2018-06-13T13:30:02.388Z,7.17
2018-06-13T13:32:31.040Z,5.40
2018-06-13T13:34:59.673Z,7.05
2018-06-13T13:37:29.342Z,5.65
2018-06-13T13:39:58.225Z,5.72
2018-06-13T13:42:26.962Z,6.78
2018-06-13T13:44:55.793Z,5.72
2018-06-13T13:47:24.379Z,4.67
2018-06-13T13:49:53.014Z,8.98
2018-06-13T13:52:21.635Z,6.17
2018-06-13T13:54:50.858Z,5.08
2018-06-13T13:57:20.097Z,10.80
2018-06-13T13:59:48.677Z,7.03
2018-06-13T14:02:17.326Z,5.58
2018-06-13T14:04:45.882Z,2.85
2018-06-13T14:07:14.534Z,7.53
2018-06-13T14:09:43.139Z,3.02
2018-06-13T14:12:11.703Z,6.55
2018-06-13T14:14:40.431Z,8.45
2018-06-13T14:17:09.074Z,4.58
2018-06-13T14:19:37.658Z,6.78
2018-06-13T14:22:06.423Z,7.45
2018-06-13T14:24:35.020Z,7.92
2018-06-13T14:27:03.707Z,4.85
2018-06-13T14:29:32.237Z,8.65
2018-06-13T14:32:00.842Z,7.05
2018-06-13T14:34:29.426Z,7.15
2018-06-13T14:36:57.979Z,8.63
2018-06-13T14:39:26.530Z,9.20
2018-06-13T14:41:55.158Z,9.68
2018-06-13T14:44:23.783Z,7.22
2018-06-13T14:46:52.366Z,8.18
2018-06-13T14:49:20.908Z,6.28
2018-06-13T14:51:54.426Z,8.68
2018-06-13T14:54:23.088Z,9.85
2018-06-13T14:56:51.755Z,6.78
2018-06-13T14:59:20.310Z,6.05
2018-06-13T15:01:48.843Z,8.78
2018-06-13T15:04:21.668Z,10.05
2018-06-13T15:06:50.348Z,6.15
2018-06-13T15:09:18.953Z,8.63
2018-06-13T15:11:48.485Z,5.97
2018-06-13T15:14:17.058Z,8.85
2018-06-13T15:16:45.706Z,7.33
2018-06-13T15:19:14.970Z,4.58
2018-06-13T15:21:43.529Z,8.08
2018-06-13T15:24:12.167Z,5.55
2018-06-13T15:26:40.799Z,6.03
2018-06-13T15:29:09.527Z,6.20
2018-06-13T15:31:38.223Z,7.17
2018-06-13T15:34:07.363Z,5.62
2018-06-13T15:36:36.004Z,4.10
2018-06-13T15:39:07.149Z,5.97
2018-06-13T15:41:35.730Z,6.50
2018-06-13T15:44:04.434Z,5.87
2018-06-13T15:46:33.039Z,4.40
2018-06-13T15:49:01.650Z,8.15
2018-06-13T15:51:30.238Z,11.93
2018-06-13T15:53:59.723Z,5.47
2018-06-13T15:56:28.458Z,3.52
2018-06-13T15:58:57.038Z,6.40
2018-06-13T16:01:25.683Z,2.87
2018-06-13T16:03:54.305Z,7.80
2018-06-13T16:06:22.960Z,5.60
2018-06-13T16:08:51.576Z,11.30
2018-06-13T16:11:20.259Z,8.18
2018-06-13T16:13:48.782Z,5.53
2018-06-13T16:16:17.380Z,7.58
2018-06-13T16:18:46.009Z,11.78
2018-06-13T16:21:14.513Z,11.20
2018-06-13T16:23:43.818Z,7.03
2018-06-13T16:26:13.110Z,5.65
2018-06-13T16:28:41.877Z,5.47
2018-06-13T16:31:12.000Z,8.33
2018-06-13T16:33:40.783Z,9.05
2018-06-13T16:36:09.320Z,9.75
2018-06-13T16:38:38.672Z,9.70
2018-06-13T16:41:07.351Z,8.68
2018-06-13T16:43:35.935Z,4.45
2018-06-13T16:46:04.619Z,4.37
2018-06-13T16:48:33.312Z,11.97
2018-06-13T16:51:13.053Z,6.72
2018-06-13T16:53:57.606Z,9.85
2018-06-13T16:56:27.556Z,8.38
2018-06-13T16:58:56.751Z,5.03
2018-06-13T17:01:25.362Z,5.60
2018-06-13T17:03:55.056Z,6.50
2018-06-13T17:06:23.965Z,10.70
2018-06-13T17:08:53.108Z,8.68
2018-06-13T17:11:21.786Z,4.03
2018-06-13T17:13:50.334Z,7.40
2018-06-13T17:16:18.958Z,5.57
2018-06-13T17:18:47.534Z,7.15
2018-06-13T17:21:16.216Z,12.00
2018-06-13T17:23:44.803Z,5.35
2018-06-13T17:26:13.532Z,5.03
2018-06-13T17:28:43.129Z,8.18
2018-06-13T17:31:12.595Z,6.42
2018-06-13T17:33:41.222Z,8.45
2018-06-13T17:36:09.864Z,6.55
2018-06-13T17:38:38.556Z,9.90
2018-06-13T17:41:07.074Z,10.15
2018-06-13T17:43:35.648Z,5.05
2018-06-13T17:46:04.611Z,3.75
2018-06-13T17:48:34.138Z,7.67
2018-06-13T17:51:03.991Z,3.55
2018-06-13T17:53:34.166Z,5.97
2018-06-13T17:56:02.780Z,5.85
2018-06-13T17:58:31.360Z,8.77
2018-06-13T18:00:59.994Z,8.80
2018-06-13T18:03:28.596Z,5.40
2018-06-13T18:05:57.832Z,4.70
2018-06-13T18:08:26.515Z,10.40
2018-06-13T18:10:55.579Z,4.80
2018-06-13T18:13:24.243Z,7.13
2018-06-13T18:15:52.826Z,6.00
2018-06-13T18:18:21.453Z,7.50
2018-06-13T18:20:52.035Z,6.50
2018-06-13T18:23:20.721Z,5.73
2018-06-13T18:25:49.387Z,10.10
2018-06-13T18:28:17.927Z,7.80
2018-06-13T18:30:46.681Z,3.83
2018-06-13T18:33:16.603Z,10.73
2018-06-13T18:35:45.230Z,6.57
2018-06-13T18:38:13.864Z,4.40
2018-06-13T18:40:44.103Z,7.33
2018-06-13T18:43:13.582Z,9.03
2018-06-13T18:45:42.678Z,5.03
2018-06-13T18:48:11.464Z,7.77
2018-06-13T18:50:40.096Z,6.60
2018-06-13T18:53:08.837Z,10.83
2018-06-13T18:55:38.033Z,6.43
2018-06-13T18:58:06.820Z,8.30
2018-06-13T19:00:35.453Z,4.83
2018-06-13T19:03:04.054Z,9.83
2018-06-13T19:05:32.594Z,8.33
2018-06-13T19:08:01.630Z,5.00
2018-06-13T19:10:31.258Z,6.13
2018-06-13T19:12:59.879Z,7.77
2018-06-13T19:15:28.641Z,11.23
2018-06-13T19:17:57.272Z,8.27
2018-06-13T19:20:26.585Z,8.50
2018-06-13T19:22:55.169Z,7.97
2018-06-13T19:25:24.213Z,6.57
2018-06-13T19:27:52.888Z,6.53
2018-06-13T19:30:21.529Z,5.40
2018-06-13T19:32:50.263Z,4.40
2018-06-13T19:35:19.765Z,9.07
2018-06-13T19:37:48.451Z,5.20
2018-06-13T19:40:17.062Z,7.87
2018-06-13T19:42:45.816Z,4.27
2018-06-13T19:45:14.442Z,5.53
2018-06-13T19:47:48.134Z,13.77
2018-06-13T19:50:16.788Z,2.43
2018-06-13T19:52:50.697Z,8.70
2018-06-13T19:55:24.526Z,4.63
2018-06-13T19:57:53.256Z,11.17
2018-06-13T20:00:23.261Z,3.73
2018-06-13T20:02:57.037Z,6.63
2018-06-13T20:05:30.814Z,5.10
2018-06-13T20:07:59.717Z,6.97
2018-06-13T20:10:28.314Z,7.07
2018-06-13T20:13:02.193Z,8.60
2018-06-13T20:15:36.086Z,2.73
2018-06-13T20:18:09.875Z,5.97
2018-06-13T20:20:38.591Z,5.33
2018-06-13T20:23:07.138Z,11.63
2018-06-13T20:25:40.979Z,4.03
2018-06-13T20:28:14.744Z,3.37
2018-06-13T20:30:49.268Z,8.30
2018-06-13T20:33:17.880Z,6.27
2018-06-13T20:35:46.426Z,6.20
2018-06-13T20:38:15.567Z,4.47
2018-06-13T20:40:44.247Z,4.60
2018-06-13T20:43:12.897Z,3.60
2018-06-13T20:45:41.494Z,5.13
2018-06-13T20:48:10.104Z,6.50
2018-06-13T20:50:38.961Z,3.80
2018-06-13T20:53:08.222Z,9.40
2018-06-13T20:55:36.851Z,4.33
2018-06-13T20:58:05.888Z,5.27
2018-06-13T21:00:34.493Z,8.80
2018-06-13T21:03:03.650Z,4.90
2018-06-13T21:05:32.150Z,7.43
2018-06-13T21:08:00.772Z,2.87
2018-06-13T21:10:29.399Z,5.20
2018-06-13T21:12:57.922Z,6.97
2018-06-13T21:15:26.549Z,3.03
2018-06-13T21:17:55.149Z,8.27
2018-06-13T21:20:23.915Z,3.30
2018-06-13T21:22:52.618Z,8.13
2018-06-13T21:25:21.226Z,5.13
2018-06-13T21:27:49.790Z,3.30
2018-06-13T21:30:18.306Z,8.17
2018-06-13T21:32:46.906Z,4.13
2018-06-13T21:35:18.151Z,5.67
2018-06-13T21:40:48.565Z,5.30
2018-06-13T21:43:19.342Z,2.47
2018-06-13T21:45:47.975Z,5.17
2018-06-13T21:48:16.541Z,5.03
2018-06-13T21:50:45.055Z,3.10
2018-06-13T21:53:14.628Z,2.10
2018-06-13T21:55:43.211Z,6.77
2018-06-13T21:58:11.794Z,5.47
2018-06-13T22:00:40.390Z,5.63
2018-06-13T22:03:08.961Z,7.17
2018-06-13T22:05:37.543Z,3.07
2018-06-13T22:08:06.560Z,3.53
2018-06-13T22:10:35.220Z,2.67
2018-06-13T22:13:03.906Z,5.90
2018-06-13T22:15:32.506Z,4.53
2018-06-13T22:18:01.121Z,3.17
2018-06-13T22:20:29.801Z,2.50
2018-06-13T22:22:58.482Z,2.60
2018-06-13T22:25:27.080Z,2.77
2018-06-13T22:27:55.658Z,2.43
2018-06-13T22:30:25.011Z,6.57
2018-06-13T22:32:53.751Z,1.57
2018-06-13T22:35:22.385Z,2.20
2018-06-13T22:37:51.034Z,2.97
2018-06-13T22:40:19.651Z,3.00
2018-06-13T22:42:48.146Z,2.77
2018-06-13T22:45:16.817Z,3.70
2018-06-13T22:47:45.318Z,0.70
2018-06-13T22:50:14.395Z,5.73
2018-06-13T22:52:42.936Z,1.70
2018-06-13T22:55:11.558Z,2.20
2018-06-13T22:57:40.245Z,4.90
2018-06-13T23:00:08.932Z,4.60
2018-06-13T23:02:38.025Z,3.87
2018-06-13T23:05:06.659Z,7.13
2018-06-13T23:07:35.306Z,3.70
2018-06-13T23:10:04.080Z,1.37
2018-06-13T23:12:32.686Z,5.70
2018-06-13T23:15:01.683Z,4.63
2018-06-13T23:17:30.259Z,3.93
2018-06-13T23:19:58.921Z,0.97
2018-06-13T23:22:27.677Z,1.07
2018-06-13T23:24:56.234Z,1.23
2018-06-13T23:27:25.591Z,5.17
2018-06-13T23:29:54.211Z,2.87
2018-06-13T23:32:22.860Z,1.53
2018-06-13T23:34:51.369Z,2.63
2018-06-13T23:37:19.978Z,1.87
2018-06-13T23:39:48.507Z,3.47
2018-06-13T23:42:17.192Z,1.50
2018-06-13T23:44:45.814Z,1.13
2018-06-13T23:47:14.491Z,1.03
2018-06-13T23:49:43.046Z,0.50
2018-06-13T23:52:11.666Z,2.07
2018-06-13T23:54:40.254Z,0.77
2018-06-13T23:57:08.832Z,3.10
2018-06-13T23:59:37.394Z,2.50
